Nearby METAR Reports

 

KMTN - Baltimore/Martin, Maryland, USA
Distance from station: SSE 8mi, 13km
Updated: Fri, 22-Aug-2014 1:39am EDT
Mist, Mostly cloudy
Mist, Mostly cloudy
 Wind from calm
Wind: Calm
Temperature: 73°F , 23°C
Dew Point: 73°F , 23°C
Humidity: 100%
Barometer: 29.97 inHg , 1014.9 hPa
Summary: Mist
Clouds: Mostly cloudy
Visibility: 4 miles , 6 km
Cloud details: Mostly cloudy 300 ft
2014/08/22 05:39 KMTN 220539Z AUTO 00000KT 4SM BR BKN003 23/23 A2997 RMK AO2
KDMH - Baltimore/Dwntwn, Maryland, USA
Distance from station: SW 12mi, 19km
Updated: Fri, 22-Aug-2014 12:54am EDT

 
Temperature: 77°F , 25°C
Dew Point: 72°F , 22°C
Humidity: 83%
Barometer: 29.98 inHg , 1015.2 hPa
2014/08/22 04:54 KDMH 220454Z AUTO 25/22 A2998 RMK AO1 SLP150 T02500217 403060222
 
KBWI - Balto/Wash Intl, Maryland, USA
Distance from station: SSW 20mi, 33km
Updated: Fri, 22-Aug-2014 12:54am EDT
Partly cloudy
Partly cloudy
 Wind from calm
Wind: Calm
Temperature: 73°F , 23°C
Dew Point: 68°F , 20°C
Humidity: 83%
Barometer: 29.97 inHg , 1014.9 hPa
Clouds: Partly cloudy
Visibility: 10 miles , 16 km
Cloud details: Partly cloudy 25000 ft
2014/08/22 04:54 KBWI 220454Z 00000KT 10SM SCT250 23/20 A2997 RMK AO2 SLP148 T02280200 403060178
KDMW - Carroll Cnty, Maryland, USA
Distance from station: WNW 30mi, 48km
Updated: Fri, 22-Aug-2014 1:35am EDT
Clear
Clear
 Wind from calm
Wind: Calm
Temperature: 72°F , 22°C
Dew Point: 70°F , 21°C
Humidity: 94%
Barometer: 30.01 inHg , 1016.3 hPa
Clouds: Clear
Visibility: 10 miles , 16 km
2014/08/22 05:35 KDMW 220535Z AUTO 00000KT 10SM CLR 22/21 A3001 RMK AO2
 
KNAK - Annapolis/Naval, Maryland, USA
Distance from station: S 30mi, 48km
Updated: Fri, 22-Aug-2014 12:54am EDT
Clear
Clear
 Wind from calm
Wind: Calm
Temperature: 75°F , 24°C
Dew Point: 72°F , 22°C
Humidity: 89%
Barometer: 29.97 inHg , 1014.9 hPa
Clouds: Clear
Visibility: 8 miles , 13 km
2014/08/22 04:54 KNAK 220454Z AUTO 00000KT 8SM CLR 24/22 A2997 RMK AO2 SLP150 T02390217 402780222
KW29 - Stevensville, Maryland, USA
Distance from station: SSE 31mi, 50km
Updated: Fri, 22-Aug-2014 1:38am EDT

 Wind from calm
Wind: Calm
Temperature: 75°F , 24°C
Dew Point: 72°F , 22°C
Humidity: 89%
Barometer: 29.97 inHg , 1014.9 hPa
Visibility: 10 miles , 16 km
2014/08/22 05:38 KW29 220538Z AUTO 00000KT 10SM 24/22 A2997 RMK AO1
 
KCGS - College Park, Maryland, USA
Distance from station: SW 38mi, 61km
Updated: Fri, 22-Aug-2014 1:35am EDT
Clear
Clear
 Wind from calm
Wind: Calm
Temperature: 72°F , 22°C
Dew Point: 72°F , 22°C
Humidity: 100%
Barometer: 29.97 inHg , 1014.9 hPa
Clouds: Clear
Visibility: 5 miles , 8 km
2014/08/22 05:35 KCGS 220535Z AUTO 00000KT 5SM CLR 22/22 A2997 RMK AO1
KGAI - Gaithersburg, Maryland, USA
Distance from station: WSW 40mi, 65km
Updated: Fri, 22-Aug-2014 1:35am EDT
Clear
Clear
 Wind from W
Wind: W 3 mph , 6 km/h
Temperature: 70°F , 21°C
Dew Point: 66°F , 19°C
Humidity: 88%
Barometer: 30.03 inHg , 1016.9 hPa
Clouds: Clear
Visibility: 3 miles , 5 km
2014/08/22 05:35 KGAI 220535Z AUTO 27003KT 3SM CLR 21/19 A3003 RMK AO1
 
KTHV - York, Pennsylvania, USA
Distance from station: NNW 40mi, 65km
Updated: Fri, 22-Aug-2014 1:31am EDT
Fog, Overcast
Fog, Overcast
 Wind from calm
Wind: Calm
Temperature: 63°F , 17°C
Dew Point: 63°F , 17°C
Humidity: 100%
Barometer: 29.99 inHg , 1015.6 hPa
Summary: Fog
Clouds: Overcast
Visibility: 1/2 mile , 2 km
Cloud details: Overcast 300 ft
2014/08/22 05:31 KTHV 220531Z AUTO 00000KT 1/2SM FG VV003 17/17 A2999 RMK AO2 T01720167
KFDK - Frederick, Maryland, USA
Distance from station: W 47mi, 75km
Updated: Fri, 22-Aug-2014 1:35am EDT
Mostly cloudy
Mostly cloudy
 Wind from calm
Wind: Calm
Barometer: 30.02 inHg , 1016.6 hPa
Clouds: Mostly cloudy
Visibility: 10 miles , 16 km
Cloud details: Mostly cloudy 10000 ft
2014/08/22 05:35 KFDK 220535Z AUTO 00000KT 10SM BKN100 A3002 RMK AO2
 
KESN - Easton/Newnam, Maryland, USA
Distance from station: SSE 48mi, 78km
Updated: Fri, 22-Aug-2014 1:50am EDT
Light rain, Overcast
Light rain, Overcast
 Wind from SW
Wind: SW 6 mph , 9 km/h
Temperature: 77°F , 25°C
Dew Point: 77°F , 25°C
Humidity: 100%
Barometer: 30.01 inHg , 1016.3 hPa
Summary: Light rain
Clouds: Overcast
Visibility: 5 miles , 8 km
Cloud details: Partly cloudy 1800 ft
Mostly cloudy 2900 ft
Overcast 5000 ft
2014/08/22 05:50 KESN 220550Z AUTO 23005KT 5SM -RA SCT018 BKN029 OVC050 25/25 A3001 RMK AO2 T02460246
KDCA - Washington/Natl, Washington D.c., USA
Distance from station: SW 49mi, 79km
Updated: Fri, 22-Aug-2014 12:52am EDT
Partly cloudy
Partly cloudy
 Wind from calm
Wind: Calm
Temperature: 77°F , 25°C
Dew Point: 70°F , 21°C
Humidity: 79%
Barometer: 29.98 inHg , 1015.2 hPa
Clouds: Partly cloudy
Visibility: 10 miles , 16 km
Cloud details: Few Clouds 13000 ft
Partly cloudy 15000 ft
2014/08/22 04:52 KDCA 220452Z 00000KT 10SM FEW130 SCT150 25/21 A2998 RMK AO2 SLP153 T02500211 403220217
 
KLNS - Lancaster, Pennsylvania, USA
Distance from station: N 49mi, 79km
Updated: Fri, 22-Aug-2014 1:36am EDT
Mist, Partly cloudy
Mist, Partly cloudy
 Wind from WSW
Wind: WSW 5 mph , 7 km/h
Temperature: 72°F , 22°C
Dew Point: 70°F , 21°C
Humidity: 94%
Barometer: 29.99 inHg , 1015.6 hPa
Summary: Mist
Clouds: Partly cloudy
Visibility: 5 miles , 8 km
Cloud details: Few Clouds 700 ft
Partly cloudy 1400 ft
Partly cloudy 3900 ft
2014/08/22 05:36 KLNS 220536Z AUTO 25004KT 5SM BR FEW007 SCT014 SCT039 22/21 A2999 RMK AO2 T02170206
KILG - Wilmington, Delaware, USA
Distance from station: ENE 50mi, 81km
Updated: Fri, 22-Aug-2014 1:18am EDT
Overcast
Overcast
 Wind from ESE
Wind: ESE 5 mph , 7 km/h
Temperature: 73°F , 23°C
Dew Point: 70°F , 21°C
Humidity: 89%
Barometer: 29.98 inHg , 1015.2 hPa
Clouds: Overcast
Visibility: 10 miles , 16 km
Cloud details: Overcast 900 ft
2014/08/22 05:18 KILG 220518Z 12004KT 10SM OVC009 23/21 A2998 RMK AO2 T02330211